Aet Gala — V7RW5 — position and weather

sailwx.info

Track history (hours):
 
Tides and Currents Weather Stations Pressure Air Temp Water Temp Dewpoint Dewpoint Depression Visibility Wind Speed Wind Dir Waves Ship Positions

Aet Gala

Last reported at 2018-Jun-14 19:20 UTC. Time now 2018-Jun-22 01:56 UTC.
Position N 25°39' W 079°28'.

Length 140 m; draft 3.3 m.

Type: Tanker. MMSI: 538003589.

Date/timePositionNaut miles runAvg speedWind from/ knotsBaromVisibWave heightAir tempDewpointWater temp
2018-Jun-14 19:20N 25°39' W 079°28'  
2018-Jun-11 18:06N 29°26' W 093°40'1 7.8
2018-Jun-11 17:56N 29°27' W 093°40'510.6
2018-Jun-11 17:30N 29°31' W 093°42'612.0
2018-Jun-11 17:00N 29°35' W 093°47'611.0
2018-Jun-11 16:29N 29°40' W 093°50'4 9.0
2018-Jun-11 16:00N 29°44' W 093°52'4 7.6
2018-Jun-11 15:30N 29°46' W 093°56'4 7.7
2018-Jun-11 15:00N 29°50' W 093°57'2 4.7
2018-Jun-11 14:30N 29°52' W 093°56'3 6.8
2018-Jun-11 14:00N 29°55' W 093°54'3 5.1
2018-Jun-11 13:30N 29°57' W 093°52'2 4.9
2018-Jun-11 13:00N 29°59' W 093°53'3 5.8
2018-Jun-11 12:30N 29°60' W 093°56'2 4.1
2018-Jun-11 12:00N 30°01' W 093°58'0 0.3
2018-Jun-11 11:30N 30°01' W 093°58'0 0.0
2018-Jun-11 10:58N 30°01' W 093°58'0 0.0
2018-Jun-11 10:28N 30°01' W 093°58'0 0.0
2018-Jun-11 09:58N 30°01' W 093°58'0 0.0
2018-Jun-11 09:28N 30°01' W 093°58'0 0.0
2018-Jun-11 08:58N 30°01' W 093°58'0 0.0
2018-Jun-11 08:28N 30°01' W 093°58'0 0.0
2018-Jun-11 07:58N 30°01' W 093°58'0 0.0
2018-Jun-11 07:28N 30°01' W 093°58'0 0.0
2018-Jun-11 06:58N 30°01' W 093°58'0 0.0
2018-Jun-11 06:28N 30°01' W 093°58'0 0.0
2018-Jun-11 05:58N 30°01' W 093°58'0 0.0
2018-Jun-11 05:28N 30°01' W 093°58'0 0.0
2018-Jun-11 04:55N 30°01' W 093°58'0 0.0
2018-Jun-11 04:28N 30°01' W 093°58'0 0.0
2018-Jun-11 03:58N 30°01' W 093°58'0 0.0
2018-Jun-11 03:28N 30°01' W 093°58'0 0.0
2018-Jun-11 02:58N 30°01' W 093°58'0 0.0
2018-Jun-11 02:28N 30°01' W 093°58'0 0.0
2018-Jun-11 01:58N 30°01' W 093°58'0 0.0
2018-Jun-11 01:28N 30°01' W 093°58'0 0.0
2018-Jun-11 00:58N 30°01' W 093°58'0 0.0
2018-Jun-11 00:28N 30°01' W 093°58'0 0.0
2018-Jun-10 23:58N 30°01' W 093°58'0 0.0
2018-Jun-10 23:28N 30°01' W 093°58'0 0.0
2018-Jun-10 22:58N 30°01' W 093°58'0 0.0
2018-Jun-10 22:28N 30°01' W 093°58'0 0.0
2018-Jun-10 21:55N 30°01' W 093°58'0 0.0
2018-Jun-10 21:28N 30°01' W 093°58'0 0.0
2018-Jun-10 20:58N 30°01' W 093°58'0 0.0
2018-Jun-10 20:28N 30°01' W 093°58'0 0.0
2018-Jun-10 19:58N 30°01' W 093°58'0 0.0
2018-Jun-10 19:28N 30°01' W 093°58'0 0.0
2018-Jun-10 18:58N 30°01' W 093°58'0 0.0
2018-Jun-10 18:28N 30°01' W 093°58'0 0.0
2018-Jun-10 17:58N 30°01' W 093°58'0 0.0
2018-Jun-10 17:28N 30°01' W 093°58'0 0.0
2018-Jun-10 16:58N 30°01' W 093°58'0 0.0
2018-Jun-10 16:28N 30°01' W 093°58'0 0.0
2018-Jun-10 15:55N 30°01' W 093°58'0 0.0
2018-Jun-10 15:28N 30°01' W 093°58'0 0.0
2018-Jun-10 14:58N 30°01' W 093°58'0 0.0
2018-Jun-10 13:58N 30°01' W 093°58'0 0.0
2018-Jun-10 13:28N 30°01' W 093°58'0 0.0
2018-Jun-10 12:58N 30°01' W 093°58'0 0.0
2018-Jun-10 12:28N 30°01' W 093°58'0 0.0
2018-Jun-10 11:58N 30°01' W 093°58'0 0.0
2018-Jun-10 11:28N 30°01' W 093°58'0 0.0
2018-Jun-10 10:58N 30°01' W 093°58'0 0.0
2018-Jun-10 10:28N 30°01' W 093°58'0 0.0
2018-Jun-10 09:58N 30°01' W 093°58'0 0.0
2018-Jun-10 09:28N 30°01' W 093°58'0 0.0
2018-Jun-10 08:58N 30°01' W 093°58'0 0.0
2018-Jun-10 08:25N 30°01' W 093°58'0 0.0
2018-Jun-10 07:58N 30°01' W 093°58'0 0.0
2018-Jun-10 07:28N 30°01' W 093°58'0 0.0
2018-Jun-10 06:58N 30°01' W 093°58'0 0.0
2018-Jun-10 06:28N 30°01' W 093°58'0 0.0
2018-Jun-10 05:58N 30°01' W 093°58'0 0.0
2018-Jun-10 05:22N 30°01' W 093°58'0 0.0
2018-Jun-10 04:58N 30°01' W 093°58'0 0.0
2018-Jun-10 04:28N 30°01' W 093°58'0 0.0
2018-Jun-10 03:58N 30°01' W 093°58'0 0.0
2018-Jun-10 03:28N 30°01' W 093°58'0 0.0
2018-Jun-10 02:58N 30°01' W 093°58'0 0.0
2018-Jun-10 02:28N 30°01' W 093°58'0 0.0
2018-Jun-10 01:58N 30°01' W 093°58'0 0.0
2018-Jun-10 01:25N 30°01' W 093°58'0 0.0
2018-Jun-10 00:58N 30°01' W 093°58'0 0.0
2018-Jun-10 00:28N 30°01' W 093°58'0 0.0
2018-Jun-09 23:58N 30°01' W 093°58'0 0.0
2018-Jun-09 23:28N 30°01' W 093°58'0 0.0
2018-Jun-09 22:55N 30°01' W 093°58'0 0.0
2018-Jun-09 22:28N 30°01' W 093°58'0 0.0
2018-Jun-09 21:58N 30°01' W 093°58'0 0.0
2018-Jun-09 21:28N 30°01' W 093°58'0 0.0
2018-Jun-09 20:58N 30°01' W 093°58'0 0.0
2018-Jun-09 20:28N 30°01' W 093°58'0 0.0
2018-Jun-09 19:58N 30°01' W 093°58'0 0.0
2018-Jun-09 19:28N 30°01' W 093°58'0 0.0
2018-Jun-09 18:58N 30°01' W 093°58'0 0.0
2018-Jun-09 18:28N 30°01' W 093°58'0 0.0
2018-Jun-09 17:58N 30°01' W 093°58'0 0.0
2018-Jun-09 17:28N 30°01' W 093°58'0 0.0
2018-Jun-09 16:58N 30°01' W 093°58'0 0.0
2018-Jun-09 16:28N 30°01' W 093°58'0 0.0
2018-Jun-09 15:55N 30°01' W 093°58'0 0.0
2018-Jun-09 14:58N 30°01' W 093°58'0 0.0
2018-Jun-09 14:28N 30°01' W 093°58'0 0.0
2018-Jun-09 13:58N 30°01' W 093°58'0 0.0
2018-Jun-09 13:28N 30°01' W 093°58'0 0.0
2018-Jun-09 12:58N 30°01' W 093°58'0 0.0
2018-Jun-09 12:28N 30°01' W 093°58'0 0.0
2018-Jun-09 11:58N 30°01' W 093°58'0 0.0
2018-Jun-09 11:28N 30°01' W 093°58'0 0.0
2018-Jun-09 10:58N 30°01' W 093°58'0 0.0
2018-Jun-09 10:28N 30°01' W 093°58'0 0.0
2018-Jun-09 09:58N 30°01' W 093°58'0 0.0
2018-Jun-09 09:28N 30°01' W 093°58'0 0.0
2018-Jun-09 08:58N 30°01' W 093°58'0 0.0
2018-Jun-09 08:28N 30°01' W 093°58'0 0.0
2018-Jun-09 07:58N 30°01' W 093°58'0 0.0
2018-Jun-09 07:28N 30°01' W 093°58'0 0.0
2018-Jun-09 06:58N 30°01' W 093°58'0 0.0
2018-Jun-09 06:28N 30°01' W 093°58'0 0.0
2018-Jun-09 05:58N 30°01' W 093°58'0 0.0
2018-Jun-09 05:28N 30°01' W 093°58'0 0.0
2018-Jun-09 04:58N 30°01' W 093°58'0 0.0
2018-Jun-09 04:28N 30°01' W 093°58'0 0.0
2018-Jun-09 03:58N 30°01' W 093°58'0 0.0
2018-Jun-09 03:28N 30°01' W 093°58'0 0.0
2018-Jun-09 02:58N 30°01' W 093°58'0 0.0
2018-Jun-09 02:28N 30°01' W 093°58'0 0.0
2018-Jun-09 01:58N 30°01' W 093°58'0 0.0
2018-Jun-09 01:28N 30°01' W 093°58'0 0.0
2018-Jun-09 00:55N 30°01' W 093°58'0 0.0
2018-Jun-09 00:28N 30°01' W 093°58'0 0.0
2018-Jun-08 23:58N 30°01' W 093°58'0 0.0
2018-Jun-08 23:28N 30°01' W 093°58'0 0.0
2018-Jun-08 22:58N 30°01' W 093°58'0 0.0
2018-Jun-08 22:28N 30°01' W 093°58'0 0.0
2018-Jun-08 21:58N 30°01' W 093°58'0 0.0
2018-Jun-08 21:28N 30°01' W 093°58'0 0.0
2018-Jun-08 20:55N 30°01' W 093°58'0 0.0
2018-Jun-08 20:25N 30°01' W 093°58'0 0.0
2018-Jun-08 19:58N 30°01' W 093°58'0 0.0
2018-Jun-08 19:28N 30°01' W 093°58'0 0.0
2018-Jun-08 18:58N 30°01' W 093°58'0 0.0
2018-Jun-08 18:28N 30°01' W 093°58'0 0.0
2018-Jun-08 17:58N 30°01' W 093°58'0 0.1
2018-Jun-08 17:30N 30°01' W 093°58'1 1.3
2018-Jun-08 17:00N 30°01' W 093°59'1 3.0
2018-Jun-08 16:30N 30°01' W 093°57'2 3.8
2018-Jun-08 16:00N 29°59' W 093°56'3 6.0
2018-Jun-08 15:30N 29°59' W 093°52'3 5.6
2018-Jun-08 15:00N 29°56' W 093°52'2 4.7
2018-Jun-08 14:30N 29°54' W 093°54'4 7.5
2018-Jun-08 14:00N 29°51' W 093°57'3 5.6
2018-Jun-08 13:30N 29°49' W 093°57'4 7.1
2018-Jun-08 13:00N 29°46' W 093°55'4 7.2
2018-Jun-08 12:30N 29°43' W 093°52'4 7.7
2018-Jun-08 12:00N 29°40' W 093°50'510.6
2018-Jun-08 11:30N 29°35' W 093°47'713.5
2018-Jun-08 11:00N 29°30' W 093°42'510.3
2018-Jun-08 10:30N 29°25' W 093°40'1 2.3
2018-Jun-08 10:00N 29°24' W 093°40'1 0.1
2018-Jun-08 05:43N 29°25' W 093°39'0 0.3
2018-Jun-08 05:28N 29°25' W 093°39'0 0.4
2018-Jun-08 05:01N 29°25' W 093°39'2 3.1
2018-Jun-08 04:31N 29°23' W 093°39'3 5.6
2018-Jun-08 03:59N 29°20' W 093°40'4 8.2
2018-Jun-08 03:31N 29°16' W 093°39'4 8.3
2018-Jun-08 03:00N 29°12' W 093°39'4 8.7
2018-Jun-08 02:30N 29°08' W 093°40'4 8.9
2018-Jun-08 02:00N 29°04' W 093°37'5 9.7
2018-Jun-08 01:29N 29°00' W 093°33'611.4
2018-Jun-08 00:58N 28°56' W 093°29'511.0
2018-Jun-08 00:30N 28°51' W 093°26'611.2
2018-Jun-08 00:01N 28°47' W 093°22'911.8
2018-Jun-07 23:17N 28°40' W 093°16'412.0
2018-Jun-07 22:57N 28°37' W 093°13'711.7
2018-Jun-07 22:20N 28°31' W 093°08'511.9
2018-Jun-07 21:53N 28°27' W 093°05'711.7
2018-Jun-07 21:18N 28°21' W 093°00'  
Track history (hours):
 
Tides and Currents Weather Stations Pressure Air Temp Water Temp Dewpoint Dewpoint Depression Visibility Wind Speed Wind Dir Waves Ship Positions

Aet Gala

Last reported at 2018-Jun-14 19:20 UTC. Time now 2018-Jun-22 01:56 UTC.
Position N 25°39' W 079°28'.

Length 140 m; draft 3.3 m.

Type: Tanker. MMSI: 538003589.

Date/timePositionNaut miles runAvg speedWind from/ knotsBaromVisibWave heightAir tempDewpointWater temp
2018-Jun-14 19:20N 25°39' W 079°28'  
2018-Jun-11 18:06N 29°26' W 093°40'1 7.8
2018-Jun-11 17:56N 29°27' W 093°40'510.6
2018-Jun-11 17:30N 29°31' W 093°42'612.0
2018-Jun-11 17:00N 29°35' W 093°47'611.0
2018-Jun-11 16:29N 29°40' W 093°50'4 9.0
2018-Jun-11 16:00N 29°44' W 093°52'4 7.6
2018-Jun-11 15:30N 29°46' W 093°56'4 7.7
2018-Jun-11 15:00N 29°50' W 093°57'2 4.7
2018-Jun-11 14:30N 29°52' W 093°56'3 6.8
2018-Jun-11 14:00N 29°55' W 093°54'3 5.1
2018-Jun-11 13:30N 29°57' W 093°52'2 4.9
2018-Jun-11 13:00N 29°59' W 093°53'3 5.8
2018-Jun-11 12:30N 29°60' W 093°56'2 4.1
2018-Jun-11 12:00N 30°01' W 093°58'0 0.3
2018-Jun-11 11:30N 30°01' W 093°58'0 0.0
2018-Jun-11 10:58N 30°01' W 093°58'0 0.0
2018-Jun-11 10:28N 30°01' W 093°58'0 0.0
2018-Jun-11 09:58N 30°01' W 093°58'0 0.0
2018-Jun-11 09:28N 30°01' W 093°58'0 0.0
2018-Jun-11 08:58N 30°01' W 093°58'0 0.0
2018-Jun-11 08:28N 30°01' W 093°58'0 0.0
2018-Jun-11 07:58N 30°01' W 093°58'0 0.0
2018-Jun-11 07:28N 30°01' W 093°58'0 0.0
2018-Jun-11 06:58N 30°01' W 093°58'0 0.0
2018-Jun-11 06:28N 30°01' W 093°58'0 0.0
2018-Jun-11 05:58N 30°01' W 093°58'0 0.0
2018-Jun-11 05:28N 30°01' W 093°58'0 0.0
2018-Jun-11 04:55N 30°01' W 093°58'0 0.0
2018-Jun-11 04:28N 30°01' W 093°58'0 0.0
2018-Jun-11 03:58N 30°01' W 093°58'0 0.0
2018-Jun-11 03:28N 30°01' W 093°58'0 0.0
2018-Jun-11 02:58N 30°01' W 093°58'0 0.0
2018-Jun-11 02:28N 30°01' W 093°58'0 0.0
2018-Jun-11 01:58N 30°01' W 093°58'0 0.0
2018-Jun-11 01:28N 30°01' W 093°58'0 0.0
2018-Jun-11 00:58N 30°01' W 093°58'0 0.0
2018-Jun-11 00:28N 30°01' W 093°58'0 0.0
2018-Jun-10 23:58N 30°01' W 093°58'0 0.0
2018-Jun-10 23:28N 30°01' W 093°58'0 0.0
2018-Jun-10 22:58N 30°01' W 093°58'0 0.0
2018-Jun-10 22:28N 30°01' W 093°58'0 0.0
2018-Jun-10 21:55N 30°01' W 093°58'0 0.0
2018-Jun-10 21:28N 30°01' W 093°58'0 0.0
2018-Jun-10 20:58N 30°01' W 093°58'0 0.0
2018-Jun-10 20:28N 30°01' W 093°58'0 0.0
2018-Jun-10 19:58N 30°01' W 093°58'0 0.0
2018-Jun-10 19:28N 30°01' W 093°58'0 0.0
2018-Jun-10 18:58N 30°01' W 093°58'0 0.0
2018-Jun-10 18:28N 30°01' W 093°58'0 0.0
2018-Jun-10 17:58N 30°01' W 093°58'0 0.0
2018-Jun-10 17:28N 30°01' W 093°58'0 0.0
2018-Jun-10 16:58N 30°01' W 093°58'0 0.0
2018-Jun-10 16:28N 30°01' W 093°58'0 0.0
2018-Jun-10 15:55N 30°01' W 093°58'0 0.0
2018-Jun-10 15:28N 30°01' W 093°58'0 0.0
2018-Jun-10 14:58N 30°01' W 093°58'0 0.0
2018-Jun-10 13:58N 30°01' W 093°58'0 0.0
2018-Jun-10 13:28N 30°01' W 093°58'0 0.0
2018-Jun-10 12:58N 30°01' W 093°58'0 0.0
2018-Jun-10 12:28N 30°01' W 093°58'0 0.0
2018-Jun-10 11:58N 30°01' W 093°58'0 0.0
2018-Jun-10 11:28N 30°01' W 093°58'0 0.0
2018-Jun-10 10:58N 30°01' W 093°58'0 0.0
2018-Jun-10 10:28N 30°01' W 093°58'0 0.0
2018-Jun-10 09:58N 30°01' W 093°58'0 0.0
2018-Jun-10 09:28N 30°01' W 093°58'0 0.0
2018-Jun-10 08:58N 30°01' W 093°58'0 0.0
2018-Jun-10 08:25N 30°01' W 093°58'0 0.0
2018-Jun-10 07:58N 30°01' W 093°58'0 0.0
2018-Jun-10 07:28N 30°01' W 093°58'0 0.0
2018-Jun-10 06:58N 30°01' W 093°58'0 0.0
2018-Jun-10 06:28N 30°01' W 093°58'0 0.0
2018-Jun-10 05:58N 30°01' W 093°58'0 0.0
2018-Jun-10 05:22N 30°01' W 093°58'0 0.0
2018-Jun-10 04:58N 30°01' W 093°58'0 0.0
2018-Jun-10 04:28N 30°01' W 093°58'0 0.0
2018-Jun-10 03:58N 30°01' W 093°58'0 0.0
2018-Jun-10 03:28N 30°01' W 093°58'0 0.0
2018-Jun-10 02:58N 30°01' W 093°58'0 0.0
2018-Jun-10 02:28N 30°01' W 093°58'0 0.0
2018-Jun-10 01:58N 30°01' W 093°58'0 0.0
2018-Jun-10 01:25N 30°01' W 093°58'0 0.0
2018-Jun-10 00:58N 30°01' W 093°58'0 0.0
2018-Jun-10 00:28N 30°01' W 093°58'0 0.0
2018-Jun-09 23:58N 30°01' W 093°58'0 0.0
2018-Jun-09 23:28N 30°01' W 093°58'0 0.0
2018-Jun-09 22:55N 30°01' W 093°58'0 0.0
2018-Jun-09 22:28N 30°01' W 093°58'0 0.0
2018-Jun-09 21:58N 30°01' W 093°58'0 0.0
2018-Jun-09 21:28N 30°01' W 093°58'0 0.0
2018-Jun-09 20:58N 30°01' W 093°58'0 0.0
2018-Jun-09 20:28N 30°01' W 093°58'0 0.0
2018-Jun-09 19:58N 30°01' W 093°58'0 0.0
2018-Jun-09 19:28N 30°01' W 093°58'0 0.0
2018-Jun-09 18:58N 30°01' W 093°58'0 0.0
2018-Jun-09 18:28N 30°01' W 093°58'0 0.0
2018-Jun-09 17:58N 30°01' W 093°58'0 0.0
2018-Jun-09 17:28N 30°01' W 093°58'0 0.0
2018-Jun-09 16:58N 30°01' W 093°58'0 0.0
2018-Jun-09 16:28N 30°01' W 093°58'0 0.0
2018-Jun-09 15:55N 30°01' W 093°58'0 0.0
2018-Jun-09 14:58N 30°01' W 093°58'0 0.0
2018-Jun-09 14:28N 30°01' W 093°58'0 0.0
2018-Jun-09 13:58N 30°01' W 093°58'0 0.0
2018-Jun-09 13:28N 30°01' W 093°58'0 0.0
2018-Jun-09 12:58N 30°01' W 093°58'0 0.0
2018-Jun-09 12:28N 30°01' W 093°58'0 0.0
2018-Jun-09 11:58N 30°01' W 093°58'0 0.0
2018-Jun-09 11:28N 30°01' W 093°58'0 0.0
2018-Jun-09 10:58N 30°01' W 093°58'0 0.0
2018-Jun-09 10:28N 30°01' W 093°58'0 0.0
2018-Jun-09 09:58N 30°01' W 093°58'0 0.0
2018-Jun-09 09:28N 30°01' W 093°58'0 0.0
2018-Jun-09 08:58N 30°01' W 093°58'0 0.0
2018-Jun-09 08:28N 30°01' W 093°58'0 0.0
2018-Jun-09 07:58N 30°01' W 093°58'0 0.0
2018-Jun-09 07:28N 30°01' W 093°58'0 0.0
2018-Jun-09 06:58N 30°01' W 093°58'0 0.0
2018-Jun-09 06:28N 30°01' W 093°58'0 0.0
2018-Jun-09 05:58N 30°01' W 093°58'0 0.0
2018-Jun-09 05:28N 30°01' W 093°58'0 0.0
2018-Jun-09 04:58N 30°01' W 093°58'0 0.0
2018-Jun-09 04:28N 30°01' W 093°58'0 0.0
2018-Jun-09 03:58N 30°01' W 093°58'0 0.0
2018-Jun-09 03:28N 30°01' W 093°58'0 0.0
2018-Jun-09 02:58N 30°01' W 093°58'0 0.0
2018-Jun-09 02:28N 30°01' W 093°58'0 0.0
2018-Jun-09 01:58N 30°01' W 093°58'0 0.0
2018-Jun-09 01:28N 30°01' W 093°58'0 0.0
2018-Jun-09 00:55N 30°01' W 093°58'0 0.0
2018-Jun-09 00:28N 30°01' W 093°58'0 0.0
2018-Jun-08 23:58N 30°01' W 093°58'0 0.0
2018-Jun-08 23:28N 30°01' W 093°58'0 0.0
2018-Jun-08 22:58N 30°01' W 093°58'0 0.0
2018-Jun-08 22:28N 30°01' W 093°58'0 0.0
2018-Jun-08 21:58N 30°01' W 093°58'0 0.0
2018-Jun-08 21:28N 30°01' W 093°58'0 0.0
2018-Jun-08 20:55N 30°01' W 093°58'0 0.0
2018-Jun-08 20:25N 30°01' W 093°58'0 0.0
2018-Jun-08 19:58N 30°01' W 093°58'0 0.0
2018-Jun-08 19:28N 30°01' W 093°58'0 0.0
2018-Jun-08 18:58N 30°01' W 093°58'0 0.0
2018-Jun-08 18:28N 30°01' W 093°58'0 0.0
2018-Jun-08 17:58N 30°01' W 093°58'0 0.1
2018-Jun-08 17:30N 30°01' W 093°58'1 1.3
2018-Jun-08 17:00N 30°01' W 093°59'1 3.0
2018-Jun-08 16:30N 30°01' W 093°57'2 3.8
2018-Jun-08 16:00N 29°59' W 093°56'3 6.0
2018-Jun-08 15:30N 29°59' W 093°52'3 5.6
2018-Jun-08 15:00N 29°56' W 093°52'2 4.7
2018-Jun-08 14:30N 29°54' W 093°54'4 7.5
2018-Jun-08 14:00N 29°51' W 093°57'3 5.6
2018-Jun-08 13:30N 29°49' W 093°57'4 7.1
2018-Jun-08 13:00N 29°46' W 093°55'4 7.2
2018-Jun-08 12:30N 29°43' W 093°52'4 7.7
2018-Jun-08 12:00N 29°40' W 093°50'510.6
2018-Jun-08 11:30N 29°35' W 093°47'713.5
2018-Jun-08 11:00N 29°30' W 093°42'510.3
2018-Jun-08 10:30N 29°25' W 093°40'1 2.3
2018-Jun-08 10:00N 29°24' W 093°40'1 0.1
2018-Jun-08 05:43N 29°25' W 093°39'0 0.3
2018-Jun-08 05:28N 29°25' W 093°39'0 0.4
2018-Jun-08 05:01N 29°25' W 093°39'2 3.1
2018-Jun-08 04:31N 29°23' W 093°39'3 5.6
2018-Jun-08 03:59N 29°20' W 093°40'4 8.2
2018-Jun-08 03:31N 29°16' W 093°39'4 8.3
2018-Jun-08 03:00N 29°12' W 093°39'4 8.7
2018-Jun-08 02:30N 29°08' W 093°40'4 8.9
2018-Jun-08 02:00N 29°04' W 093°37'5 9.7
2018-Jun-08 01:29N 29°00' W 093°33'611.4
2018-Jun-08 00:58N 28°56' W 093°29'511.0
2018-Jun-08 00:30N 28°51' W 093°26'611.2
2018-Jun-08 00:01N 28°47' W 093°22'911.8
2018-Jun-07 23:17N 28°40' W 093°16'412.0
2018-Jun-07 22:57N 28°37' W 093°13'711.7
2018-Jun-07 22:20N 28°31' W 093°08'511.9
2018-Jun-07 21:53N 28°27' W 093°05'711.7
2018-Jun-07 21:18N 28°21' W 093°00'  

Dump ship's entire track history